Time;durP1;ratioP1;P1;durP2;ratioP2;P2;SDS_P1;SDS_P2;PMS_P1;PMS_P2;Temp;Humidity;BMP_temperature;BMP_pressure;BME280_temperature;BME280_humidity;BME280_pressure;Samples;Min_cycle;Max_cycle;Signal;HPM_P1;HPM_P2
2023/06/17 00:01:18;;;;;;;14.18;10.02;;;;;;;16.41;100.00;101610.91;4899880;28;22939;-77
2023/06/17 00:03:46;;;;;;;18.75;10.15;;;;;;;16.41;100.00;101610.91;4916494;29;20058;-77
2023/06/17 00:06:13;;;;;;;21.25;10.20;;;;;;;16.37;100.00;101604.75;4930379;29;20059;-77
2023/06/17 00:08:41;;;;;;;19.13;11.25;;;;;;;16.32;100.00;101607.44;4930392;29;20043;-77
2023/06/17 00:11:09;;;;;;;18.05;11.15;;;;;;;16.29;100.00;101603.91;4948022;29;20675;-78
2023/06/17 00:13:37;;;;;;;19.08;11.23;;;;;;;16.23;100.00;101604.84;4972470;28;20042;-79
2023/06/17 00:16:06;;;;;;;19.08;11.00;;;;;;;16.20;100.00;101602.25;4920291;29;20058;-77
2023/06/17 00:18:33;;;;;;;23.90;12.55;;;;;;;16.19;100.00;101605.78;4911333;28;20044;-78
2023/06/17 00:21:02;;;;;;;15.48;10.52;;;;;;;16.19;100.00;101603.13;4945281;29;20055;-77
2023/06/17 00:23:30;;;;;;;21.83;11.07;;;;;;;16.16;100.00;101606.69;4924596;29;20055;-77
2023/06/17 00:25:57;;;;;;;18.38;11.82;;;;;;;16.16;100.00;101605.78;4950418;29;20055;-77
2023/06/17 00:28:24;;;;;;;20.13;10.68;;;;;;;16.14;100.00;101610.25;4932973;29;20051;-77
2023/06/17 00:30:52;;;;;;;18.30;10.00;;;;;;;16.13;100.00;101600.53;4936660;29;20039;-77
2023/06/17 00:33:19;;;;;;;20.15;10.60;;;;;;;16.11;100.00;101599.66;4907486;28;20055;-78
2023/06/17 00:35:46;;;;;;;19.40;10.98;;;;;;;16.10;100.00;101600.53;4921677;29;20395;-76
2023/06/17 00:38:14;;;;;;;22.40;11.48;;;;;;;16.06;100.00;101597.00;4949137;29;20047;-78
2023/06/17 00:40:41;;;;;;;17.02;11.13;;;;;;;16.01;100.00;101592.63;4950022;29;20055;-77
2023/06/17 00:43:09;;;;;;;19.00;11.23;;;;;;;15.96;100.00;101596.19;4947951;29;20482;-76
2023/06/17 00:45:39;;;;;;;18.65;11.13;;;;;;;15.95;100.00;101602.44;4944398;28;20051;-77
2023/06/17 00:48:08;;;;;;;20.85;11.73;;;;;;;15.92;100.00;101594.47;4950401;29;20047;-77
2023/06/17 00:50:37;;;;;;;15.65;10.48;;;;;;;15.90;100.00;101592.72;4911989;28;20047;-78
2023/06/17 00:53:06;;;;;;;17.25;10.15;;;;;;;15.85;100.00;101584.75;4948687;29;20043;-77
2023/06/17 00:55:34;;;;;;;13.15;9.73;;;;;;;15.84;100.00;101588.34;4949575;29;20055;-78
2023/06/17 00:58:02;;;;;;;16.20;11.05;;;;;;;15.85;100.00;101592.72;4916949;29;20506;-78
2023/06/17 01:00:30;;;;;;;20.58;11.77;;;;;;;15.86;100.00;101593.59;4945006;28;20054;-78
2023/06/17 01:02:58;;;;;;;16.75;11.02;;;;;;;15.86;100.00;101582.97;4935425;29;20058;-79
2023/06/17 01:05:27;;;;;;;16.95;11.88;;;;;;;15.84;100.00;101583.03;4892483;29;20682;-77
2023/06/17 01:08:04;;;;;;;18.17;10.82;;;;;;;15.87;100.00;101588.28;4964695;28;20058;-78
2023/06/17 01:10:59;;;;;;;22.83;12.20;;;;;;;15.89;100.00;101591.81;4952449;29;20055;-78
2023/06/17 01:13:28;;;;;;;18.80;12.07;;;;;;;15.89;100.00;101586.50;4949583;29;20043;-78
2023/06/17 01:15:57;;;;;;;19.92;10.82;;;;;;;15.89;100.00;101577.66;4944865;28;20050;-77
2023/06/17 01:18:26;;;;;;;17.20;11.55;;;;;;;15.90;100.00;101580.31;4928376;29;20052;-78
2023/06/17 01:20:55;;;;;;;18.35;11.77;;;;;;;15.89;100.00;101583.84;4908884;28;20039;-77
2023/06/17 01:23:32;;;;;;;24.15;12.30;;;;;;;15.91;100.00;101582.06;4965179;28;20077;-77
2023/06/17 01:26:01;;;;;;;13.82;11.32;;;;;;;15.92;100.00;101583.84;4948723;29;20039;-77
2023/06/17 01:28:29;;;;;;;21.50;12.43;;;;;;;15.92;100.00;101578.53;4948363;29;20591;-78
2023/06/17 01:30:57;;;;;;;16.80;12.55;;;;;;;15.93;100.00;101579.38;4956321;28;20054;-77
2023/06/17 01:33:25;;;;;;;21.63;12.27;;;;;;;15.95;100.00;101589.13;4929858;29;20677;-78
2023/06/17 01:35:53;;;;;;;18.80;12.60;;;;;;;15.97;100.00;101581.13;4905145;28;20039;-77
2023/06/17 01:38:42;;;;;;;22.65;13.65;;;;;;;15.97;100.00;101586.44;4946657;29;20138;-77
2023/06/17 01:41:14;;;;;;;20.45;12.10;;;;;;;15.96;100.00;101585.56;4944980;28;20565;-78
2023/06/17 01:43:44;;;;;;;18.58;13.30;;;;;;;15.99;100.00;101582.00;4975833;28;20159;-78
2023/06/17 01:46:13;;;;;;;29.17;13.48;;;;;;;16.01;100.00;101579.34;4943037;28;20474;-77
2023/06/17 01:48:41;;;;;;;19.95;12.18;;;;;;;16.01;100.00;101582.91;4932465;29;20058;-77
2023/06/17 01:51:08;;;;;;;22.95;12.75;;;;;;;16.04;100.00;101587.28;4910888;28;20043;-78
2023/06/17 01:53:36;;;;;;;27.65;12.07;;;;;;;16.05;100.00;101581.06;4934146;29;20059;-77
2023/06/17 01:56:03;;;;;;;18.10;12.52;;;;;;;16.05;100.00;101587.28;4963973;28;20039;-77
2023/06/17 01:58:31;;;;;;;24.10;13.80;;;;;;;16.04;100.00;101585.50;4949726;29;20063;-78
2023/06/17 02:00:58;;;;;;;21.95;13.30;;;;;;;16.05;100.00;101581.06;4943873;28;20054;-78
2023/06/17 02:03:26;;;;;;;21.48;12.98;;;;;;;16.06;100.00;101580.19;4911822;29;20059;-76
2023/06/17 02:05:53;;;;;;;22.90;14.30;;;;;;;16.06;100.00;101572.22;4935895;28;20048;-76
2023/06/17 02:08:22;;;;;;;30.63;13.70;;;;;;;16.07;100.00;101580.19;4914295;28;20086;-76
2023/06/17 02:10:51;;;;;;;17.63;12.77;;;;;;;16.08;100.00;101581.06;4955024;28;20538;-78
2023/06/17 02:13:18;;;;;;;26.08;14.57;;;;;;;16.08;100.00;101578.41;4945480;29;20047;-77
2023/06/17 02:15:46;;;;;;;23.13;13.95;;;;;;;16.09;100.00;101573.06;4958364;28;20036;-78
2023/06/17 02:18:14;;;;;;;21.30;14.40;;;;;;;16.09;100.00;101567.75;4927892;28;20398;-77
2023/06/17 02:20:45;;;;;;;25.45;16.13;;;;;;;16.07;100.00;101563.34;4946899;29;20054;-78
2023/06/17 02:23:12;;;;;;;24.27;15.32;;;;;;;16.05;100.00;101570.44;4904658;28;20062;-76
2023/06/17 02:25:39;;;;;;;23.52;14.65;;;;;;;16.06;100.00;101569.56;4932860;29;20051;-77
2023/06/17 02:28:07;;;;;;;20.80;15.10;;;;;;;16.06;100.00;101562.44;4930750;29;20055;-77
2023/06/17 02:30:35;;;;;;;23.33;14.48;;;;;;;16.07;100.00;101572.22;4933293;29;20051;-77
2023/06/17 02:33:03;;;;;;;22.63;16.67;;;;;;;16.07;100.00;101566.88;4953972;28;20058;-77
2023/06/17 02:35:30;;;;;;;25.27;15.38;;;;;;;16.08;100.00;101563.31;4911230;29;20048;-76
2023/06/17 02:37:59;;;;;;;28.05;16.33;;;;;;;16.10;100.00;101568.63;4891469;29;20514;-77
2023/06/17 02:40:26;;;;;;;23.55;15.75;;;;;;;16.10;100.00;101572.16;4966127;28;20494;-78
2023/06/17 02:42:54;;;;;;;32.47;17.58;;;;;;;16.09;100.00;101570.41;4963872;28;20047;-78
2023/06/17 02:45:21;;;;;;;23.50;14.77;;;;;;;16.09;100.00;101572.19;4921311;29;20048;-78
2023/06/17 02:47:50;;;;;;;28.02;16.42;;;;;;;16.08;100.00;101573.94;4963893;28;20035;-77
2023/06/17 02:50:23;;;;;;;26.27;15.75;;;;;;;16.09;100.00;101566.88;4937539;28;20051;-78
2023/06/17 02:52:55;;;;;;;29.20;15.95;;;;;;;16.09;100.00;101566.88;4921995;28;20047;-78
2023/06/17 02:55:25;;;;;;;22.10;15.05;;;;;;;16.08;100.00;101562.44;4946331;29;20059;-77
2023/06/17 02:57:53;;;;;;;25.52;16.75;;;;;;;16.07;100.00;101563.34;4932240;29;20059;-77
2023/06/17 03:00:22;;;;;;;19.33;14.02;;;;;;;16.06;100.00;101557.13;4907946;29;20051;-77
2023/06/17 03:02:50;;;;;;;25.88;14.20;;;;;;;16.06;100.00;101553.59;4939844;28;20047;-77
2023/06/17 03:05:18;;;;;;;19.88;13.80;;;;;;;16.05;100.00;101547.41;4931286;29;20062;-78
2023/06/17 03:07:46;;;;;;;25.00;14.93;;;;;;;16.03;100.00;101549.22;4932178;29;20145;-78
2023/06/17 03:10:16;;;;;;;17.15;13.50;;;;;;;16.02;100.00;101559.84;4906366;28;20104;-77
2023/06/17 03:12:49;;;;;;;29.65;14.00;;;;;;;16.02;100.00;101555.41;4947030;29;20074;-77
2023/06/17 03:15:20;;;;;;;24.52;15.70;;;;;;;16.05;100.00;101559.78;4927943;29;20051;-77
2023/06/17 03:17:48;;;;;;;21.02;14.20;;;;;;;16.03;100.00;101556.28;4964990;28;20088;-77
2023/06/17 03:20:16;;;;;;;25.30;15.15;;;;;;;16.04;100.00;101552.75;4922753;29;20055;-77
2023/06/17 03:22:44;;;;;;;20.38;13.13;;;;;;;16.03;100.00;101551.88;4948773;29;20542;-76
2023/06/17 03:25:12;;;;;;;19.75;14.32;;;;;;;16.04;100.00;101555.41;4906135;28;20059;-77
2023/06/17 03:27:40;;;;;;;21.20;13.60;;;;;;;16.03;100.00;101551.88;4980727;28;20047;-76
2023/06/17 03:30:08;;;;;;;18.10;14.45;;;;;;;16.03;100.00;101551.88;4945633;29;20051;-78
2023/06/17 03:32:36;;;;;;;21.15;15.95;;;;;;;16.02;100.00;101546.56;4958266;28;20055;-77
2023/06/17 03:35:06;;;;;;;26.10;18.42;;;;;;;16.02;100.00;101551.88;4955350;28;20051;-78
2023/06/17 03:37:33;;;;;;;27.88;18.83;;;;;;;16.01;100.00;101566.03;4929348;29;20058;-79
2023/06/17 03:40:00;;;;;;;23.52;16.00;;;;;;;15.96;100.00;101547.47;4916504;28;20055;-79
2023/06/17 03:42:31;;;;;;;22.63;16.38;;;;;;;15.94;100.00;101558.13;4950955;29;20051;-77
2023/06/17 03:44:59;;;;;;;26.17;16.75;;;;;;;15.92;100.00;101551.94;4936406;29;20051;-78
2023/06/17 03:47:26;;;;;;;22.33;17.02;;;;;;;15.90;100.00;101547.53;4952138;29;20054;-78
2023/06/17 03:49:54;;;;;;;25.88;17.80;;;;;;;15.90;100.00;101547.53;4949389;28;20051;-77
2023/06/17 03:52:21;;;;;;;24.55;17.55;;;;;;;15.89;100.00;101548.41;4952150;28;20051;-77
2023/06/17 03:54:49;;;;;;;27.05;19.25;;;;;;;15.89;100.00;101537.78;4913031;28;20039;-77
2023/06/17 03:57:16;;;;;;;31.83;19.75;;;;;;;15.88;100.00;101549.28;4950860;29;20450;-77
2023/06/17 03:59:44;;;;;;;29.65;19.25;;;;;;;15.87;100.00;101540.44;4952003;29;20051;-77
2023/06/17 04:02:12;;;;;;;29.23;19.15;;;;;;;15.90;100.00;101537.78;4925795;28;20059;-77
2023/06/17 04:04:40;;;;;;;28.90;20.20;;;;;;;15.91;100.00;101534.22;4933638;29;20051;-78
2023/06/17 04:07:08;;;;;;;32.42;21.00;;;;;;;15.91;100.00;101536.00;4945735;28;20045;-78
2023/06/17 04:09:36;;;;;;;25.30;18.80;;;;;;;15.88;100.00;101531.59;4950645;29;20426;-78
2023/06/17 04:12:03;;;;;;;28.27;20.42;;;;;;;15.87;100.00;101545.78;4893511;29;20430;-78
2023/06/17 04:14:31;;;;;;;23.35;18.92;;;;;;;15.88;100.00;101536.00;4920435;29;20062;-78
2023/06/17 04:16:59;;;;;;;22.95;18.23;;;;;;;15.89;100.00;101545.75;4965769;28;20051;-77
2023/06/17 04:19:26;;;;;;;26.58;19.15;;;;;;;15.88;100.00;101546.63;4950271;29;20055;-77
2023/06/17 04:21:54;;;;;;;27.45;18.33;;;;;;;15.88;100.00;101543.97;4937712;28;20537;-77
2023/06/17 04:24:21;;;;;;;29.63;18.42;;;;;;;15.86;100.00;101546.69;4973482;28;20054;-78
2023/06/17 04:26:52;;;;;;;24.60;17.27;;;;;;;15.87;100.00;101545.78;4942005;28;20039;-77
2023/06/17 04:29:20;;;;;;;25.92;16.85;;;;;;;15.87;100.00;101556.41;4949381;28;20158;-77
2023/06/17 04:31:48;;;;;;;20.38;16.00;;;;;;;15.88;100.00;101558.19;4932639;29;20051;-78
2023/06/17 04:34:21;;;;;;;22.67;17.00;;;;;;;15.89;100.00;101564.38;4945430;29;20055;-78
2023/06/17 04:36:58;;;;;;;25.40;16.65;;;;;;;15.87;100.00;101561.72;4938263;28;20522;-77
2023/06/17 04:39:34;;;;;;;21.90;16.30;;;;;;;15.88;100.00;101562.59;4955225;28;20073;-77
2023/06/17 04:42:03;;;;;;;24.75;15.63;;;;;;;15.89;100.00;101569.69;4902993;28;20051;-77
2023/06/17 04:44:31;;;;;;;22.83;16.00;;;;;;;15.92;100.00;101567.88;4916916;29;20058;-78
2023/06/17 04:47:00;;;;;;;24.27;16.45;;;;;;;15.93;100.00;101564.31;4935219;29;20058;-77
2023/06/17 04:49:28;;;;;;;23.42;15.07;;;;;;;15.90;100.00;101574.13;4928768;29;20059;-79
2023/06/17 04:51:56;;;;;;;25.30;17.02;;;;;;;15.87;100.00;101577.66;4921630;29;20055;-79
2023/06/17 04:54:24;;;;;;;22.95;16.58;;;;;;;15.86;100.00;101575.00;4939487;28;20058;-76
2023/06/17 04:56:52;;;;;;;23.70;16.35;;;;;;;15.85;100.00;101570.59;4909910;28;20387;-77
2023/06/17 04:59:20;;;;;;;22.48;17.15;;;;;;;15.85;100.00;101576.78;4887160;29;20066;-77
2023/06/17 05:01:47;;;;;;;26.23;17.00;;;;;;;15.87;100.00;101575.00;4948810;28;20047;-78
2023/06/17 05:04:15;;;;;;;25.75;18.02;;;;;;;15.88;100.00;101576.78;4918122;28;20062;-79
2023/06/17 05:06:44;;;;;;;27.17;17.67;;;;;;;15.91;100.00;101576.75;4947807;28;20046;-77
2023/06/17 05:09:12;;;;;;;27.75;17.60;;;;;;;15.93;100.00;101576.72;4926034;28;20040;-78
2023/06/17 05:11:42;;;;;;;23.10;17.35;;;;;;;15.96;100.00;101577.59;4902572;29;20055;-77
2023/06/17 05:14:10;;;;;;;27.85;18.23;;;;;;;15.98;100.00;101578.47;4917447;28;20070;-76
2023/06/17 05:16:37;;;;;;;29.60;18.65;;;;;;;15.96;100.00;101577.59;4944682;29;20055;-77
2023/06/17 05:19:05;;;;;;;25.90;18.60;;;;;;;15.95;100.00;101578.50;4934547;28;20054;-76
2023/06/17 05:21:33;;;;;;;28.48;19.75;;;;;;;15.96;100.00;101580.25;4910996;28;20597;-78
2023/06/17 05:24:00;;;;;;;28.70;20.40;;;;;;;15.96;100.00;101582.91;4926516;28;20053;-77
2023/06/17 05:26:30;;;;;;;33.05;21.30;;;;;;;15.98;100.00;101580.25;4917179;29;20047;-77
2023/06/17 05:28:58;;;;;;;25.77;19.83;;;;;;;16.00;100.00;101585.56;4938376;28;20051;-77
2023/06/17 05:31:26;;;;;;;21.88;17.70;;;;;;;16.04;100.00;101576.66;4930529;29;20054;-77
2023/06/17 05:33:54;;;;;;;24.13;18.23;;;;;;;16.09;100.00;101582.84;4948380;28;20062;-77
2023/06/17 05:36:22;;;;;;;22.05;17.60;;;;;;;16.10;100.00;101574.81;4942993;28;20059;-79
2023/06/17 05:38:52;;;;;;;;;;;;;;;16.10;100.00;101572.16;4965778;28;20085;-78
2023/06/17 05:41:20;;;;;;;30.50;19.35;;;;;;;16.09;100.00;101575.72;4927209;28;19926;-76
2023/06/17 05:43:48;;;;;;;29.08;20.05;;;;;;;16.09;100.00;101570.41;4931878;29;20050;-77
2023/06/17 05:46:15;;;;;;;24.95;19.30;;;;;;;16.11;100.00;101576.59;4909817;28;20246;-77
2023/06/17 05:48:43;;;;;;;24.27;17.58;;;;;;;16.14;100.00;101576.59;4963015;28;20047;-76
2023/06/17 05:51:11;;;;;;;25.80;17.85;;;;;;;16.20;100.00;101578.31;4957509;28;20063;-76
2023/06/17 05:53:39;;;;;;;23.20;15.85;;;;;;;16.25;100.00;101581.78;4936876;28;20039;-77
2023/06/17 05:56:09;;;;;;;28.30;16.73;;;;;;;16.29;100.00;101588.84;4930362;28;20059;-76
2023/06/17 05:58:37;;;;;;;21.80;15.25;;;;;;;16.33;100.00;101592.34;4939279;29;20051;-77
2023/06/17 06:01:10;;;;;;;24.13;15.57;;;;;;;16.37;100.00;101594.13;4915358;28;20047;-77
2023/06/17 06:03:37;;;;;;;26.70;15.18;;;;;;;16.38;100.00;101583.44;4961152;28;20055;-76
2023/06/17 06:06:05;;;;;;;21.35;15.25;;;;;;;16.38;100.00;101591.41;4943777;29;20046;-76
2023/06/17 06:08:32;;;;;;;20.25;14.00;;;;;;;16.40;100.00;101583.44;4933679;28;20043;-77
2023/06/17 06:11:02;;;;;;;22.95;13.93;;;;;;;16.45;100.00;101594.94;4926992;28;20047;-77
2023/06/17 06:13:29;;;;;;;22.23;13.20;;;;;;;16.48;100.00;101586.94;4937377;28;20060;-77
2023/06/17 06:15:58;;;;;;;16.70;13.10;;;;;;;16.51;100.00;101592.19;4915793;28;20055;-76
2023/06/17 06:18:26;;;;;;;18.45;12.45;;;;;;;16.56;100.00;101589.50;4944293;29;20771;-77
2023/06/17 06:20:54;;;;;;;20.85;12.60;;;;;;;16.62;100.00;101589.44;4929217;29;20062;-76
2023/06/17 06:23:21;;;;;;;18.05;12.05;;;;;;;16.69;100.00;101596.47;4927594;29;20059;-77
2023/06/17 06:25:49;;;;;;;15.63;12.00;;;;;;;16.71;100.00;101594.69;4933905;28;20058;-77
2023/06/17 06:28:16;;;;;;;19.20;12.50;;;;;;;16.73;100.00;101587.56;4951034;28;20062;-76
2023/06/17 06:30:44;;;;;;;19.55;12.00;;;;;;;16.76;100.00;101586.63;4945268;29;20096;-75
2023/06/17 06:33:11;;;;;;;21.55;12.60;;;;;;;16.82;100.00;101596.31;4893220;28;20058;-76
2023/06/17 06:35:39;;;;;;;20.23;11.98;;;;;;;16.86;100.00;101603.41;4942326;29;20063;-77
2023/06/17 06:38:10;;;;;;;18.17;11.23;;;;;;;16.90;100.00;101600.72;4926832;29;20533;-76
2023/06/17 06:40:37;;;;;;;15.63;10.65;;;;;;;16.91;100.00;101588.28;4951094;28;20051;-76
2023/06/17 06:43:05;;;;;;;16.52;11.85;;;;;;;16.97;100.00;101592.66;4967341;28;20050;-76
2023/06/17 06:45:47;;;;;;;18.63;11.60;;;;;;;17.03;100.00;101600.56;4955767;28;20055;-76
2023/06/17 06:48:14;;;;;;;15.00;10.98;;;;;;;17.10;100.00;101596.94;4881320;29;20411;-76
2023/06/17 06:50:42;;;;;;;19.10;11.07;;;;;;;17.12;100.00;101606.66;4944381;29;20065;-77
2023/06/17 06:53:09;;;;;;;17.38;10.38;;;;;;;17.13;100.00;101600.44;4942582;29;20050;-76
2023/06/17 06:55:36;;;;;;;19.20;11.40;;;;;;;17.16;100.00;101602.16;4919176;29;20051;-77
2023/06/17 06:58:04;;;;;;;17.92;11.30;;;;;;;17.21;100.00;101602.13;4921265;28;20057;-76
2023/06/17 07:00:31;;;;;;;15.10;10.02;;;;;;;17.22;100.00;101607.44;4943236;28;20051;-77
2023/06/17 07:02:59;;;;;;;13.35;9.85;;;;;;;17.28;100.00;101606.50;4899916;28;20554;-77
2023/06/17 07:05:28;;;;;;;18.52;10.35;;;;;;;17.31;100.00;101607.31;4927968;29;20035;-77
2023/06/17 07:08:00;;;;;;;16.38;10.25;;;;;;;17.38;100.00;101613.44;4943255;28;20058;-77
2023/06/17 07:10:27;;;;;;;14.27;9.82;;;;;;;17.46;100.00;101606.22;4917686;28;20055;-77
2023/06/17 07:12:56;;;;;;;18.58;9.70;;;;;;;17.52;100.00;101607.94;4959336;28;20055;-77
2023/06/17 07:15:24;;;;;;;16.35;10.15;;;;;;;17.62;100.00;101606.91;4954452;28;20051;-77
2023/06/17 07:17:52;;;;;;;15.35;8.95;;;;;;;17.71;100.00;101606.78;4938917;28;20043;-77
2023/06/17 07:20:19;;;;;;;14.85;9.70;;;;;;;17.85;100.00;101608.41;4899076;29;20044;-76
2023/06/17 07:22:48;;;;;;;20.98;10.80;;;;;;;17.96;100.00;101606.47;4932863;28;20058;-76
2023/06/17 07:25:16;;;;;;;15.80;10.27;;;;;;;18.03;100.00;101612.56;4930589;29;20127;-76
2023/06/17 07:27:44;;;;;;;18.25;9.80;;;;;;;18.09;100.00;101607.13;4953628;28;20059;-77
2023/06/17 07:30:12;;;;;;;16.90;11.30;;;;;;;18.15;100.00;101617.72;4916193;29;20423;-76
2023/06/17 07:32:40;;;;;;;18.80;10.07;;;;;;;18.14;100.00;101607.94;4947996;29;20046;-77
2023/06/17 07:35:08;;;;;;;16.88;11.20;;;;;;;18.16;100.00;101613.25;4902727;28;20525;-76
2023/06/17 07:37:36;;;;;;;14.98;9.88;;;;;;;18.18;100.00;101614.97;4948513;29;20051;-77
2023/06/17 07:40:06;;;;;;;18.90;10.67;;;;;;;18.23;100.00;101625.59;4946243;29;20043;-76
2023/06/17 07:42:34;;;;;;;21.70;11.07;;;;;;;18.25;100.00;101618.44;4956435;28;20498;-77
2023/06/17 07:45:01;;;;;;;18.75;11.18;;;;;;;18.24;100.00;101614.91;4947608;28;20059;-77
2023/06/17 07:47:28;;;;;;;16.92;10.27;;;;;;;18.23;100.00;101621.13;4960232;28;20683;-77
2023/06/17 07:49:56;;;;;;;15.88;9.98;;;;;;;18.27;100.00;101614.84;4917206;28;20051;-77
2023/06/17 07:52:23;;;;;;;17.67;10.57;;;;;;;18.35;100.00;101604.03;4946558;29;20058;-78
2023/06/17 07:54:52;;;;;;;15.70;10.02;;;;;;;18.43;100.00;101612.81;4951812;28;20051;-77
2023/06/17 07:57:20;;;;;;;18.52;11.70;;;;;;;18.52;100.00;101617.09;4920782;28;20051;-76
2023/06/17 07:59:47;;;;;;;16.10;10.90;;;;;;;18.57;100.00;101609.00;4949913;29;20047;-76
2023/06/17 08:02:15;;;;;;;16.60;10.25;;;;;;;18.63;100.00;101617.78;4933023;28;20054;-77
2023/06/17 08:04:44;;;;;;;18.35;11.18;;;;;;;18.62;100.00;101610.69;4939956;28;20043;-77
2023/06/17 08:07:13;;;;;;;16.38;10.80;;;;;;;18.61;100.00;101616.91;4923685;28;20078;-77
2023/06/17 08:09:40;;;;;;;24.70;12.40;;;;;;;18.60;100.00;101623.19;4945894;28;20047;-77
2023/06/17 08:12:08;;;;;;;21.63;11.45;;;;;;;18.64;100.00;101624.00;4928682;29;20039;-77
2023/06/17 08:14:35;;;;;;;15.45;11.02;;;;;;;18.68;100.00;101626.59;4937161;28;20050;-77
2023/06/17 08:17:03;;;;;;;19.33;11.32;;;;;;;18.73;100.00;101617.59;4956214;28;20047;-77
2023/06/17 08:19:30;;;;;;;17.40;11.95;;;;;;;18.71;100.00;101614.97;4976580;28;20069;-77
2023/06/17 08:21:57;;;;;;;17.10;12.50;;;;;;;18.72;100.00;101611.41;4895054;28;20067;-77
2023/06/17 08:24:25;;;;;;;15.30;10.68;;;;;;;18.78;100.00;101608.59;4898480;29;20055;-76
2023/06/17 08:26:54;;;;;;;18.88;11.52;;;;;;;18.88;100.00;101601.31;4940556;28;20047;-76
2023/06/17 08:29:22;;;;;;;15.13;10.88;;;;;;;18.94;100.00;101605.66;4930022;28;20058;-76
2023/06/17 08:31:51;;;;;;;14.77;11.02;;;;;;;18.99;100.00;101607.34;4925703;28;20051;-76
2023/06/17 08:34:19;;;;;;;15.60;10.88;;;;;;;19.02;100.00;101601.94;4950251;28;20051;-77
2023/06/17 08:36:52;;;;;;;18.55;11.40;;;;;;;19.11;100.00;101605.34;4944212;29;20082;-77
2023/06/17 08:39:20;;;;;;;16.92;10.38;;;;;;;19.22;100.00;101603.31;4903399;28;20065;-75
2023/06/17 08:41:48;;;;;;;18.05;10.82;;;;;;;19.35;100.00;101604.81;4943732;29;20054;-75
2023/06/17 08:44:15;;;;;;;16.17;10.13;;;;;;;19.46;100.00;101602.78;4937840;29;20066;-76
2023/06/17 08:46:44;;;;;;;16.77;9.70;;;;;;;19.62;100.00;101603.34;4912953;29;20499;-77
2023/06/17 08:49:13;;;;;;;15.80;10.60;;;;;;;19.76;100.00;101604.88;4930645;28;20058;-76
2023/06/17 08:51:40;;;;;;;13.75;8.95;;;;;;;19.91;100.00;101599.16;4942296;29;20132;-76
2023/06/17 08:54:10;;;;;;;14.90;10.75;;;;;;;20.09;100.00;101602.28;4899949;28;20079;-76
2023/06/17 08:56:38;;;;;;;13.68;9.88;;;;;;;20.17;100.00;101597.63;4948829;29;20047;-77
2023/06/17 08:59:05;;;;;;;16.70;10.48;;;;;;;20.21;100.00;101597.53;4952654;28;20547;-75
2023/06/17 09:01:34;;;;;;;13.75;9.45;;;;;;;20.22;100.00;101606.44;4917269;29;20043;-76
2023/06/17 09:04:02;;;;;;;20.40;10.50;;;;;;;20.22;100.00;101598.41;4938198;28;20050;-77
2023/06/17 09:06:30;;;;;;;15.63;9.60;;;;;;;20.30;100.00;101607.09;4945770;29;20535;-76
2023/06/17 09:08:58;;;;;;;13.93;9.50;;;;;;;20.41;100.00;101597.00;4886849;28;20042;-77
2023/06/17 09:11:31;;;;;;;15.25;8.60;;;;;;;20.52;100.00;101598.53;4938966;29;20062;-77
2023/06/17 09:14:00;;;;;;;15.07;9.10;;;;;;;20.56;100.00;101600.22;4947064;29;20043;-77
2023/06/17 09:16:35;;;;;;;17.95;9.32;;;;;;;20.58;100.00;101593.00;4942325;28;20058;-77
2023/06/17 09:19:04;;;;;;;14.70;8.60;;;;;;;20.61;100.00;101593.84;4947505;28;20050;-77
2023/06/17 09:21:33;;;;;;;13.55;8.73;;;;;;;20.67;100.00;101595.47;4951585;28;20074;-77
2023/06/17 09:24:03;;;;;;;13.43;8.65;;;;;;;20.76;100.00;101592.56;4901549;28;20047;-76
2023/06/17 09:26:32;;;;;;;13.75;9.77;;;;;;;20.78;100.00;101588.03;4952164;28;20411;-78
2023/06/17 09:29:05;;;;;;;16.15;8.80;;;;;;;20.77;100.00;101590.75;4935295;28;20051;-77
2023/06/17 09:31:46;;;;;;;19.00;9.93;;;;;;;20.79;100.00;101583.53;4913582;28;20058;-77
2023/06/17 09:34:14;;;;;;;13.40;10.02;;;;;;;20.87;100.00;101588.69;4923048;28;20434;-78
2023/06/17 09:36:42;;;;;;;17.02;9.38;;;;;;;20.96;100.00;101597.38;4948055;28;20059;-77
2023/06/17 09:39:12;;;;;;;17.67;9.57;;;;;;;20.95;100.00;101590.25;4933907;28;20046;-78
2023/06/17 09:41:42;;;;;;;18.20;10.43;;;;;;;20.95;100.00;101590.25;4948955;28;20510;-78
2023/06/17 09:44:10;;;;;;;16.20;11.00;;;;;;;20.99;100.00;101594.59;4946366;28;20507;-77
2023/06/17 09:46:46;;;;;;;16.23;10.25;;;;;;;21.01;100.00;101587.38;4921322;28;20051;-78
2023/06/17 09:49:21;;;;;;;16.08;9.57;;;;;;;21.01;100.00;101605.25;4915415;28;20534;-77
2023/06/17 09:51:51;;;;;;;10.80;8.98;;;;;;;21.01;100.00;101598.09;4957251;28;20059;-76
2023/06/17 09:54:21;;;;;;;13.65;9.18;;;;;;;21.10;100.00;101593.41;4897717;28;20047;-80
2023/06/17 09:56:50;;;;;;;;;;;;;;;21.19;100.00;101595.81;4943968;28;20059;-78
2023/06/17 09:59:21;;;;;;;14.95;10.20;;;;;;;21.21;100.00;101593.97;4935956;29;19945;-78
2023/06/17 10:01:52;;;;;;;18.00;10.30;;;;;;;21.28;100.00;101595.53;4947972;28;20044;-80
2023/06/17 10:04:19;;;;;;;15.30;10.20;;;;;;;21.35;100.00;101597.09;4902456;28;20051;-78
2023/06/17 10:06:49;;;;;;;13.85;9.63;;;;;;;21.36;100.00;101595.31;4920630;28;20052;-76
2023/06/17 10:09:17;;;;;;;19.38;12.48;;;;;;;21.40;100.00;101603.22;4908095;28;20046;-77
2023/06/17 10:11:48;;;;;;;14.65;9.43;;;;;;;21.43;100.00;101592.38;4945821;29;20051;-76
2023/06/17 10:14:29;;;;;;;15.27;10.45;;;;;;;21.52;100.00;101590.41;4944023;29;20062;-77
2023/06/17 10:16:57;;;;;;;18.30;10.13;;;;;;;21.62;100.00;101589.19;4947189;29;20062;-77
2023/06/17 10:19:29;;;;;;;16.33;9.68;;;;;;;21.71;100.00;101590.72;4934092;28;20047;-77
2023/06/17 10:21:59;;;;;;;16.88;9.85;;;;;;;21.73;100.00;101587.03;4946002;29;20051;-77
2023/06/17 10:24:27;;;;;;;16.50;10.15;;;;;;;21.76;100.00;101589.63;4958099;28;20054;-77
2023/06/17 10:27:02;;;;;;;17.48;9.32;;;;;;;21.82;100.00;101587.69;4883781;29;20062;-77
2023/06/17 10:29:32;;;;;;;16.50;10.35;;;;;;;21.85;100.00;101588.44;4939385;28;20047;-78
2023/06/17 10:32:22;;;;;;;14.95;9.13;;;;;;;21.99;100.00;101590.69;4954224;28;20055;-79
2023/06/17 10:35:19;;;;;;;17.15;9.70;;;;;;;22.10;100.00;101596.59;4939357;28;20054;-77
2023/06/17 10:37:48;;;;;;;16.17;10.75;;;;;;;22.13;100.00;101598.28;4925825;28;20058;-77
2023/06/17 10:40:26;;;;;;;19.85;10.20;;;;;;;22.12;100.00;101596.56;4942718;29;20047;-78
2023/06/17 10:42:58;;;;;;;17.45;10.32;;;;;;;22.10;100.00;101601.97;4927629;28;20039;-78
2023/06/17 10:45:29;;;;;;;16.17;10.23;;;;;;;22.11;100.00;101610.88;4939579;28;20773;-78
2023/06/17 10:48:19;;;;;;;17.48;10.23;;;;;;;22.11;100.00;101611.75;4933480;28;20043;-77
2023/06/17 10:51:10;;;;;;;16.33;10.00;;;;;;;22.01;100.00;101599.56;4941546;28;20055;-77
2023/06/17 10:53:45;;;;;;;17.15;9.63;;;;;;;22.01;100.00;101596.88;4927928;28;20048;-77
2023/06/17 10:56:12;;;;;;;15.57;9.55;;;;;;;22.04;100.00;101594.13;4929355;28;20063;-77
2023/06/17 10:58:46;;;;;;;13.00;9.00;;;;;;;22.13;100.00;101590.22;4902974;28;20043;-77
2023/06/17 11:01:14;;;;;;;14.43;9.27;;;;;;;22.20;100.00;101592.66;4943083;28;20047;-78
2023/06/17 11:03:41;;;;;;;18.60;9.95;;;;;;;22.28;100.00;101599.63;4956953;28;20058;-79
2023/06/17 11:06:10;;;;;;;14.68;9.32;;;;;;;22.31;100.00;101595.03;4927251;29;20609;-77
2023/06/17 11:08:38;;;;;;;17.13;9.88;;;;;;;22.36;100.00;101597.53;4934256;28;20043;-78
2023/06/17 11:11:14;;;;;;;14.15;9.63;;;;;;;22.47;100.00;101594.50;4945987;28;20044;-78
2023/06/17 11:13:47;;;;;;;16.35;9.90;;;;;;;22.38;100.00;101590.31;4914349;28;20052;-78